CCM4 weather

Port Au Choix Airport
Port Au Choix, Newfoundland and Labrador, Canada

Public forecast

Using degrees Celsius for public forecast. Weather courtesy of forecast.io.

METAR (pilot weather report)

Closest report is Lourdes de Blanc Sablon Airport, 45.6 nm (84.5 km) N. Retrieved 2019/07/18 03:00 UTC (49 minutes ago):

CYBX 180300Z VRB02KT 15SM OVC011 14/13 A2960 RMK SC8 SLP026 DENSITY ALT 400FT

TAF (pilot weather forecast)

Closest forecast is Lourdes de Blanc Sablon Airport, 45.6 nm (84.5 km) N. Retrieved 2019/07/18 02:00 UTC (2 hours ago):

TAF CYBX 180141Z 1802/1814 20005KT P6SM OVC025 TEMPO 1802/1804 2SM -RA -DZ BR BKN002 OVC015 FM180400 24005KT 1/2SM -DZ FG VV002 TEMPO 1804/1808 2SM BR OVC006 FM180800 28008KT 1SM BR BKN003 BKN030 TEMPO 1808/1810 P6SM NSW SCT030 FM181000 29012KT P6SM SCT030 RMK NXT FCST BY 180800Z